createdAt,value
2023-05-17T00:07:02.424Z,85.94
2023-05-17T00:17:05.932Z,85.75
2023-05-17T00:27:09.061Z,85.49
2023-05-17T00:37:12.213Z,85.70
2023-05-17T00:47:15.333Z,85.48
2023-05-17T00:57:18.575Z,85.12
2023-05-17T01:07:21.901Z,85.20
2023-05-17T01:17:27.031Z,85.59
2023-05-17T01:27:31.709Z,85.32
2023-05-17T01:37:34.802Z,85.06
2023-05-17T01:47:51.588Z,84.58
2023-05-17T01:57:56.229Z,84.99
2023-05-17T02:07:59.471Z,85.10
2023-05-17T02:18:02.736Z,84.61
2023-05-17T02:28:06.065Z,84.09
2023-05-17T02:38:11.834Z,84.17
2023-05-17T02:48:17.842Z,83.96
2023-05-17T02:58:21.343Z,83.85
2023-05-17T03:08:24.640Z,83.68
2023-05-17T03:18:28.140Z,83.77
2023-05-17T03:28:31.437Z,83.68
2023-05-17T03:38:36.194Z,83.52
2023-05-17T03:48:42.423Z,83.89
2023-05-17T03:58:47.355Z,84.84
2023-05-17T04:08:51.894Z,84.40
2023-05-17T04:18:55.386Z,84.03
2023-05-17T04:28:58.934Z,84.69
2023-05-17T04:39:03.841Z,85.36
2023-05-17T04:49:07.599Z,84.96
2023-05-17T04:59:12.014Z,83.72
2023-05-17T05:09:15.926Z,83.86
2023-05-17T05:19:19.719Z,83.59
2023-05-17T05:29:23.613Z,83.67
2023-05-17T05:39:28.343Z,83.70
2023-05-17T05:49:31.592Z,83.11
2023-05-17T05:59:34.817Z,83.37
2023-05-17T06:09:38.449Z,83.04
2023-05-17T06:19:41.666Z,83.08
2023-05-17T06:29:45.065Z,82.76
2023-05-17T06:39:55.657Z,83.26
2023-05-17T06:50:03.302Z,83.00
2023-05-17T07:00:10.910Z,81.95
2023-05-17T07:10:14.009Z,82.47
2023-05-17T07:20:17.463Z,82.06
2023-05-17T07:30:20.748Z,82.42
2023-05-17T07:40:24.009Z,81.57
2023-05-17T07:50:29.132Z,82.36
2023-05-17T08:00:33.197Z,81.81
2023-05-17T08:10:38.019Z,81.24
2023-05-17T08:20:41.234Z,80.85
2023-05-17T08:30:46.722Z,80.45
2023-05-17T08:40:54.953Z,80.38
2023-05-17T08:51:01.627Z,80.39
2023-05-17T09:01:07.359Z,79.86
2023-05-17T09:11:11.444Z,80.31
2023-05-17T09:21:14.691Z,80.47
2023-05-17T09:31:17.995Z,81.08
2023-05-17T09:41:24.416Z,80.59
2023-05-17T09:51:40.399Z,79.90
2023-05-17T10:01:45.600Z,79.62
2023-05-17T10:11:52.592Z,78.54
2023-05-17T10:22:05.193Z,78.24
2023-05-17T10:32:14.935Z,78.66
2023-05-17T10:42:19.358Z,77.29
2023-05-17T10:52:23.874Z,77.48
2023-05-17T11:02:28.943Z,77.36
2023-05-17T11:12:40.670Z,77.60
2023-05-17T11:22:49.938Z,76.60
2023-05-17T11:32:57.732Z,75.71
2023-05-17T11:43:15.261Z,75.43
2023-05-17T11:53:19.400Z,75.47
2023-05-17T12:03:30.111Z,75.99
2023-05-17T12:13:35.130Z,75.54
2023-05-17T12:23:41.300Z,75.98
2023-05-17T12:33:47.943Z,76.20
2023-05-17T12:43:54.916Z,76.59
2023-05-17T12:54:02.967Z,76.47
2023-05-17T13:04:06.810Z,76.68
2023-05-17T13:14:12.824Z,76.95
2023-05-17T13:24:15.948Z,77.94
2023-05-17T13:34:21.250Z,78.18
2023-05-17T13:44:24.606Z,77.94
2023-05-17T13:54:28.007Z,78.06
2023-05-17T14:04:31.273Z,78.55
2023-05-17T14:14:34.485Z,79.16
2023-05-17T14:24:37.684Z,79.69
2023-05-17T14:34:57.987Z,79.15
2023-05-17T14:45:01.883Z,79.28
2023-05-17T14:55:05.536Z,79.63
2023-05-17T15:05:10.816Z,79.45
2023-05-17T15:15:13.925Z,79.48
2023-05-17T15:25:17.878Z,79.40
2023-05-17T15:35:24.320Z,79.32
2023-05-17T15:45:38.345Z,79.63
2023-05-17T15:55:41.484Z,80.33
2023-05-17T16:05:45.305Z,80.16
2023-05-17T16:15:48.509Z,79.84
2023-05-17T16:25:51.683Z,79.70
2023-05-17T16:35:55.054Z,80.77
2023-05-17T16:45:58.204Z,81.35
2023-05-17T16:56:02.675Z,81.76
2023-05-17T17:06:06.173Z,80.47
2023-05-17T17:16:09.474Z,79.71
2023-05-17T17:26:12.900Z,81.26
2023-05-17T17:36:17.060Z,82.47
2023-05-17T17:46:20.226Z,82.80
2023-05-17T17:56:25.556Z,83.24
2023-05-17T18:06:29.128Z,83.29
2023-05-17T18:16:32.286Z,82.81
2023-05-17T18:26:35.610Z,82.90
2023-05-17T18:36:38.890Z,82.17
2023-05-17T18:46:42.190Z,81.88
2023-05-17T18:56:45.443Z,82.06
2023-05-17T19:06:49.019Z,82.45
2023-05-17T19:16:52.287Z,82.47
2023-05-17T19:26:55.428Z,82.89
2023-05-17T19:36:58.932Z,83.13
2023-05-17T19:47:02.020Z,83.06
2023-05-17T19:57:05.804Z,82.87
2023-05-17T20:07:09.125Z,82.99
2023-05-17T20:17:13.130Z,83.29
2023-05-17T20:27:16.334Z,83.18
2023-05-17T20:37:19.560Z,82.68
2023-05-17T20:47:23.038Z,83.10
2023-05-17T20:57:26.256Z,84.48
2023-05-17T21:07:30.725Z,85.07
2023-05-17T21:17:33.977Z,84.64
2023-05-17T21:27:37.126Z,83.78
2023-05-17T21:37:40.835Z,84.15
2023-05-17T21:47:44.159Z,84.80
2023-05-17T21:57:47.370Z,85.28
2023-05-17T22:07:50.493Z,85.22
2023-05-17T22:17:54.334Z,85.55
2023-05-17T22:27:57.403Z,85.36
2023-05-17T22:38:00.660Z,84.95
2023-05-17T22:48:05.892Z,84.71
2023-05-17T22:58:09.145Z,84.82
2023-05-17T23:08:15.714Z,84.57
2023-05-17T23:18:19.569Z,84.49
2023-05-17T23:28:25.175Z,85.47
2023-05-17T23:38:28.395Z,85.11
2023-05-17T23:48:34.251Z,85.01
2023-05-17T23:58:37.312Z,84.77
